createdAt,value
2023-06-22T20:11:31.259Z,20.60
2023-06-22T20:13:59.134Z,20.50
2023-06-22T20:16:29.022Z,20.50
2023-06-22T20:19:09.660Z,20.50
2023-06-22T20:21:37.482Z,20.40
2023-06-22T20:24:08.625Z,20.40
2023-06-22T20:26:43.063Z,20.40
2023-06-22T20:29:30.760Z,20.30
2023-06-22T20:32:05.948Z,20.30
2023-06-22T20:34:39.964Z,20.30
2023-06-22T20:37:07.528Z,20.30
2023-06-22T20:39:35.670Z,20.30
2023-06-22T20:42:05.499Z,20.30
2023-06-22T20:44:33.870Z,20.30
2023-06-22T20:47:11.738Z,20.30
2023-06-22T20:49:38.652Z,20.30
2023-06-22T20:52:07.784Z,20.20
2023-06-22T20:54:35.294Z,20.20
2023-06-22T20:57:02.462Z,20.20
2023-06-22T20:59:30.694Z,20.20
2023-06-22T21:01:57.981Z,20.20
2023-06-22T21:04:25.200Z,20.20
2023-06-22T21:06:52.315Z,20.20
2023-06-22T21:09:19.213Z,20.10
2023-06-22T21:11:46.054Z,20.10
2023-06-22T21:14:19.863Z,20.10
2023-06-22T21:16:48.675Z,20.10
2023-06-22T21:19:16.084Z,20.00
2023-06-22T21:21:43.105Z,20.00
2023-06-22T21:24:10.110Z,20.00
2023-06-22T21:26:37.052Z,19.90
2023-06-22T21:29:03.942Z,19.90
2023-06-22T21:31:30.885Z,19.80
2023-06-22T21:33:57.838Z,19.70
2023-06-22T21:36:24.893Z,19.60
2023-06-22T21:38:52.814Z,19.50
2023-06-22T21:41:19.688Z,19.40
2023-06-22T21:43:46.603Z,19.30
2023-06-22T21:46:13.849Z,19.30
2023-06-22T21:48:41.048Z,19.20
2023-06-22T21:51:07.977Z,19.20
2023-06-22T21:53:34.844Z,19.20
2023-06-22T21:56:01.688Z,19.10
2023-06-22T21:58:28.584Z,19.00
2023-06-22T22:00:56.595Z,19.00
2023-06-22T22:03:24.423Z,18.90
2023-06-22T22:05:51.340Z,18.80
2023-06-22T22:08:18.586Z,18.80
2023-06-22T22:10:45.738Z,18.80
2023-06-22T22:13:13.278Z,18.80
2023-06-22T22:15:40.983Z,18.80
2023-06-22T22:18:09.210Z,18.80
2023-06-22T22:20:36.248Z,18.80
2023-06-22T22:23:04.235Z,18.80
2023-06-22T22:25:32.173Z,18.80
2023-06-22T22:27:59.241Z,18.80
2023-06-22T22:30:26.154Z,18.80
2023-06-22T22:32:53.126Z,18.80
2023-06-22T22:35:20.086Z,18.80
2023-06-22T22:37:46.960Z,18.80
2023-06-22T22:40:13.859Z,18.90
2023-06-22T22:46:49.506Z,18.90
2023-06-22T22:49:22.642Z,19.00
2023-06-22T22:52:01.818Z,19.00
2023-06-22T22:58:01.997Z,19.00
2023-06-22T23:00:53.604Z,19.00
2023-06-22T23:03:32.631Z,19.10
2023-06-22T23:06:02.630Z,19.10
2023-06-22T23:13:13.110Z,19.10
2023-06-22T23:23:24.468Z,19.10
2023-06-22T23:30:31.765Z,19.20
2023-06-22T23:33:19.841Z,19.20
2023-06-22T23:36:14.928Z,19.20
2023-06-22T23:38:47.856Z,19.20
2023-06-22T23:41:29.784Z,19.20
2023-06-22T23:43:56.621Z,19.30
2023-06-22T23:46:29.296Z,19.30
2023-06-22T23:56:09.422Z,19.30
